createdAt,value
2023-04-11T00:00:52.814Z,3.70
2023-04-11T00:03:40.475Z,3.70
2023-04-11T00:06:28.154Z,3.70
2023-04-11T00:09:16.812Z,3.60
2023-04-11T00:12:04.820Z,3.60
2023-04-11T00:14:53.836Z,3.50
2023-04-11T00:17:41.830Z,3.50
2023-04-11T00:20:29.372Z,3.50
2023-04-11T00:23:16.904Z,3.40
2023-04-11T00:26:04.639Z,3.40
2023-04-11T00:28:52.082Z,3.40
2023-04-11T00:31:39.553Z,3.40
2023-04-11T00:34:28.454Z,3.40
2023-04-11T00:37:15.992Z,3.30
2023-04-11T00:40:05.855Z,3.30
2023-04-11T00:42:53.345Z,3.30
2023-04-11T00:45:41.158Z,3.30
2023-04-11T00:48:28.885Z,3.40
2023-04-11T00:51:16.611Z,3.40
2023-04-11T00:54:04.350Z,3.40
2023-04-11T00:56:52.445Z,3.40
2023-04-11T00:59:41.309Z,3.40
2023-04-11T01:02:29.723Z,3.40
2023-04-11T01:05:18.632Z,3.40
2023-04-11T01:08:07.758Z,3.40
2023-04-11T01:10:55.340Z,3.30
2023-04-11T01:13:44.365Z,3.30
2023-04-11T01:16:32.059Z,3.30
2023-04-11T01:19:21.984Z,3.30
2023-04-11T01:22:11.401Z,3.30
2023-04-11T01:24:58.916Z,3.20
2023-04-11T01:27:48.408Z,3.20
2023-04-11T01:30:35.997Z,3.20
2023-04-11T01:33:23.753Z,3.20
2023-04-11T01:36:11.455Z,3.20
2023-04-11T01:38:59.603Z,3.20
2023-04-11T01:41:49.151Z,3.20
2023-04-11T01:44:37.195Z,3.20
2023-04-11T01:47:24.778Z,3.20
2023-04-11T01:50:12.284Z,3.10
2023-04-11T01:52:59.760Z,3.10
2023-04-11T01:55:47.273Z,3.10
2023-04-11T01:58:34.685Z,3.10
2023-04-11T02:01:22.608Z,3.10
2023-04-11T02:04:10.731Z,3.10
2023-04-11T02:06:58.213Z,3.10
2023-04-11T02:09:45.697Z,3.00
2023-04-11T02:12:33.209Z,3.00
2023-04-11T02:15:20.757Z,3.00
2023-04-11T02:18:09.550Z,3.00
2023-04-11T02:20:57.033Z,3.10
2023-04-11T02:23:44.444Z,3.10
2023-04-11T02:26:31.923Z,3.20
2023-04-11T02:29:19.466Z,3.30
2023-04-11T02:32:07.097Z,3.30
2023-04-11T02:34:54.576Z,3.40
2023-04-11T02:37:42.236Z,3.40
2023-04-11T02:40:29.745Z,3.50
2023-04-11T02:43:17.313Z,3.40
2023-04-11T02:46:12.876Z,3.40
2023-04-11T02:49:01.096Z,3.40
2023-04-11T02:51:48.553Z,3.30
2023-04-11T02:54:36.012Z,3.30
2023-04-11T02:57:23.468Z,3.30
2023-04-11T03:00:11.692Z,3.30
2023-04-11T03:02:59.407Z,3.20
2023-04-11T03:05:47.553Z,3.20
2023-04-11T03:08:36.338Z,3.20
2023-04-11T03:11:23.873Z,3.10
2023-04-11T03:14:11.307Z,3.00
2023-04-11T03:16:58.798Z,3.00
2023-04-11T03:19:46.323Z,2.90
2023-04-11T03:22:33.888Z,2.80
2023-04-11T03:25:21.533Z,2.80
2023-04-11T03:28:09.068Z,2.80
2023-04-11T03:30:57.096Z,2.80
2023-04-11T03:33:46.425Z,2.90
2023-04-11T03:36:34.191Z,2.90
2023-04-11T03:39:22.379Z,3.00
2023-04-11T03:42:10.089Z,3.00
2023-04-11T03:44:58.028Z,3.10
2023-04-11T03:47:45.676Z,3.20
2023-04-11T03:50:33.290Z,3.20
2023-04-11T03:53:20.808Z,3.30
2023-04-11T03:56:09.363Z,3.40
2023-04-11T03:58:56.960Z,3.40
2023-04-11T04:01:44.545Z,3.40
2023-04-11T04:04:33.517Z,3.40
2023-04-11T04:07:28.063Z,3.40
2023-04-11T04:10:15.900Z,3.40
2023-04-11T04:13:03.363Z,3.50
2023-04-11T04:15:54.409Z,3.40
2023-04-11T04:18:41.894Z,3.40
2023-04-11T04:21:33.024Z,3.40
2023-04-11T04:24:20.522Z,3.40
2023-04-11T04:27:11.617Z,3.50
2023-04-11T04:30:04.567Z,3.50
2023-04-11T04:32:54.969Z,3.50
2023-04-11T04:35:42.510Z,3.60
2023-04-11T04:38:30.965Z,3.60
2023-04-11T04:41:22.168Z,3.70
2023-04-11T04:44:10.635Z,3.70
2023-04-11T04:46:58.081Z,3.80
2023-04-11T04:49:46.587Z,3.80
2023-04-11T04:52:34.095Z,3.90
2023-04-11T04:55:21.528Z,4.00
2023-04-11T04:58:08.999Z,4.00
2023-04-11T05:00:56.604Z,4.10
2023-04-11T05:03:46.817Z,4.20
2023-04-11T05:06:34.383Z,4.20
2023-04-11T05:09:21.925Z,4.30
2023-04-11T05:12:09.733Z,4.40
2023-04-11T05:14:57.340Z,4.40
2023-04-11T05:17:44.885Z,4.50
2023-04-11T05:20:32.471Z,4.40
2023-04-11T05:23:19.951Z,4.40
2023-04-11T05:26:08.923Z,4.50
2023-04-11T05:28:56.527Z,4.50
2023-04-11T05:31:43.998Z,4.60
2023-04-11T05:34:34.375Z,4.60
2023-04-11T05:37:21.951Z,4.60
2023-04-11T05:40:10.270Z,4.70
2023-04-11T05:42:57.912Z,4.70
2023-04-11T05:45:48.028Z,4.80
2023-04-11T05:48:36.311Z,4.90
2023-04-11T05:51:24.251Z,4.90
2023-04-11T05:54:18.997Z,5.00
2023-04-11T05:57:07.673Z,5.20
2023-04-11T05:59:55.256Z,5.20
2023-04-11T06:02:43.797Z,5.30
2023-04-11T06:05:33.156Z,5.40
2023-04-11T06:08:21.563Z,5.40
2023-04-11T06:11:09.431Z,5.50
2023-04-11T06:13:56.987Z,5.50
2023-04-11T06:16:44.697Z,5.50
2023-04-11T06:19:32.211Z,5.50
2023-04-11T06:22:19.723Z,5.50
2023-04-11T06:25:08.408Z,5.60
2023-04-11T06:27:56.081Z,5.60
2023-04-11T06:30:43.551Z,5.60
2023-04-11T06:33:31.058Z,5.60
2023-04-11T06:36:18.566Z,5.70
2023-04-11T06:39:06.126Z,5.80
2023-04-11T06:41:53.804Z,5.90
2023-04-11T06:44:41.342Z,6.00
2023-04-11T06:47:29.368Z,6.20
2023-04-11T06:50:17.005Z,6.30
2023-04-11T06:53:04.484Z,6.20
2023-04-11T06:55:52.284Z,6.00
2023-04-11T06:58:39.750Z,6.00
2023-04-11T07:01:31.051Z,6.00
2023-04-11T07:04:19.206Z,6.00
2023-04-11T07:07:06.981Z,6.20
2023-04-11T07:09:54.434Z,6.30
2023-04-11T07:12:41.857Z,6.30
2023-04-11T07:15:29.326Z,6.50
2023-04-11T07:18:17.070Z,6.60
2023-04-11T07:21:04.684Z,6.70
2023-04-11T07:23:53.583Z,6.80
2023-04-11T07:26:42.422Z,6.70
2023-04-11T07:29:29.963Z,6.50
2023-04-11T07:32:17.507Z,6.30
2023-04-11T07:35:05.413Z,6.30
2023-04-11T07:37:53.761Z,6.30
2023-04-11T07:40:41.369Z,6.30
2023-04-11T07:43:30.241Z,6.40
2023-04-11T07:46:17.868Z,6.40
2023-04-11T07:49:05.503Z,6.50
2023-04-11T07:51:52.975Z,6.60
2023-04-11T07:54:40.496Z,6.70
2023-04-11T07:57:27.937Z,6.80
2023-04-11T08:00:23.380Z,6.90
2023-04-11T08:03:13.279Z,7.00
2023-04-11T08:06:01.132Z,7.20
2023-04-11T08:08:51.480Z,7.40
2023-04-11T08:11:39.545Z,7.80
2023-04-11T08:14:27.186Z,8.00
2023-04-11T08:17:27.208Z,8.10
2023-04-11T08:20:16.962Z,8.10
2023-04-11T08:23:07.904Z,8.10
2023-04-11T08:25:58.910Z,8.00
2023-04-11T08:28:46.380Z,8.00
2023-04-11T08:31:33.891Z,8.00
2023-04-11T08:34:21.324Z,8.00
2023-04-11T08:37:08.877Z,7.90
2023-04-11T08:39:57.137Z,7.70
2023-04-11T08:42:46.121Z,7.70
2023-04-11T08:45:33.653Z,7.60
2023-04-11T08:48:22.040Z,7.40
2023-04-11T08:51:09.518Z,7.40
2023-04-11T08:54:04.365Z,7.30
2023-04-11T08:56:51.803Z,7.30
2023-04-11T08:59:51.294Z,7.30
2023-04-11T09:03:01.540Z,7.20
2023-04-11T09:05:49.072Z,7.00
2023-04-11T09:08:39.630Z,7.00
2023-04-11T09:11:27.682Z,7.10
2023-04-11T09:14:15.190Z,7.20
2023-04-11T09:17:13.229Z,7.30
2023-04-11T09:20:29.491Z,7.30
2023-04-11T09:23:25.424Z,7.40
2023-04-11T09:26:28.070Z,7.30
2023-04-11T09:29:40.647Z,7.40
2023-04-11T09:32:34.032Z,7.40
2023-04-11T09:35:25.079Z,7.40
2023-04-11T09:38:12.541Z,7.40
2023-04-11T09:41:04.682Z,7.40
2023-04-11T09:43:55.911Z,7.40
2023-04-11T09:47:00.158Z,7.30
2023-04-11T09:49:48.626Z,7.30
2023-04-11T09:52:39.660Z,7.30
2023-04-11T09:55:27.174Z,7.40
2023-04-11T09:58:15.490Z,7.50
2023-04-11T10:01:07.789Z,7.50
2023-04-11T10:03:57.188Z,7.60
2023-04-11T10:07:02.359Z,7.80
2023-04-11T10:09:50.088Z,8.00
2023-04-11T10:12:38.231Z,8.10
2023-04-11T10:15:25.771Z,8.10
2023-04-11T10:18:13.951Z,8.10
2023-04-11T10:21:01.828Z,8.10
2023-04-11T10:24:13.474Z,8.20
2023-04-11T10:27:07.743Z,8.10
2023-04-11T10:29:55.877Z,8.10
2023-04-11T10:33:14.946Z,8.10
2023-04-11T10:36:11.561Z,8.20
2023-04-11T10:38:59.282Z,8.50
2023-04-11T10:41:46.820Z,8.80
2023-04-11T10:44:34.372Z,9.00
2023-04-11T10:47:26.155Z,9.00
2023-04-11T10:50:42.489Z,9.10
2023-04-11T10:53:37.732Z,9.30
2023-04-11T10:56:46.728Z,9.40
2023-04-11T10:59:34.497Z,9.50
2023-04-11T11:02:26.819Z,9.70
2023-04-11T11:05:19.616Z,10.10
2023-04-11T11:08:07.283Z,10.50
2023-04-11T11:11:03.226Z,10.90
2023-04-11T11:13:53.574Z,11.20
2023-04-11T11:16:46.668Z,11.40
2023-04-11T11:19:36.162Z,11.30
2023-04-11T11:22:26.144Z,11.30
2023-04-11T11:25:14.262Z,11.10
2023-04-11T11:28:07.474Z,10.90
2023-04-11T11:30:57.420Z,10.00
2023-04-11T11:33:44.934Z,9.20
2023-04-11T11:36:40.944Z,8.90
2023-04-11T11:39:30.804Z,8.70
2023-04-11T11:42:18.818Z,8.80
2023-04-11T11:45:21.656Z,9.00
2023-04-11T11:48:27.221Z,9.40
2023-04-11T11:51:14.875Z,9.80
2023-04-11T11:54:10.889Z,10.20
2023-04-11T11:56:58.471Z,10.50
2023-04-11T11:59:53.559Z,10.70
2023-04-11T12:02:44.969Z,10.90
2023-04-11T12:05:35.036Z,11.20
2023-04-11T12:08:24.823Z,11.30
2023-04-11T12:11:15.904Z,11.50
2023-04-11T12:14:03.442Z,11.40
2023-04-11T12:16:54.513Z,11.30
2023-04-11T12:19:42.856Z,11.20
2023-04-11T12:22:30.385Z,11.10
2023-04-11T12:25:17.925Z,10.80
2023-04-11T12:28:09.242Z,10.50
2023-04-11T12:30:56.792Z,10.40
2023-04-11T12:33:44.841Z,10.40
2023-04-11T12:36:33.647Z,10.30
2023-04-11T12:39:21.125Z,10.30
2023-04-11T12:42:09.464Z,10.40
2023-04-11T12:44:57.621Z,10.50
2023-04-11T12:47:45.184Z,10.50
2023-04-11T12:50:32.628Z,10.50
2023-04-11T12:53:20.127Z,10.50
2023-04-11T12:56:08.399Z,10.50
2023-04-11T12:58:59.027Z,10.60
2023-04-11T13:01:47.351Z,10.80
2023-04-11T13:04:37.849Z,11.00
2023-04-11T13:07:25.627Z,11.20
2023-04-11T13:10:15.865Z,11.50
2023-04-11T13:13:15.462Z,11.70
2023-04-11T13:16:06.738Z,11.80
2023-04-11T13:18:54.596Z,11.80
2023-04-11T13:21:42.455Z,11.80
2023-04-11T13:24:32.068Z,11.90
2023-04-11T13:27:19.491Z,11.80
2023-04-11T13:30:10.022Z,11.70
2023-04-11T13:32:57.739Z,11.60
2023-04-11T13:35:46.122Z,11.30
2023-04-11T13:38:33.656Z,11.00
2023-04-11T13:41:21.277Z,10.80
2023-04-11T13:44:09.012Z,10.50
2023-04-11T13:46:56.973Z,10.30
2023-04-11T13:49:44.979Z,10.20
2023-04-11T13:52:32.672Z,10.20
2023-04-11T13:55:20.596Z,10.20
2023-04-11T13:58:08.296Z,10.30
2023-04-11T14:00:55.947Z,10.30
2023-04-11T14:03:44.776Z,10.30
2023-04-11T14:06:32.528Z,10.40
2023-04-11T14:09:20.289Z,10.50
2023-04-11T14:12:07.840Z,10.80
2023-04-11T14:14:55.446Z,10.80
2023-04-11T14:17:44.126Z,11.00
2023-04-11T14:20:31.983Z,11.20
2023-04-11T14:23:22.022Z,11.30
2023-04-11T14:26:09.473Z,11.30
2023-04-11T14:28:57.129Z,11.30
2023-04-11T14:31:46.099Z,11.20
2023-04-11T14:34:33.734Z,11.10
2023-04-11T14:37:21.864Z,11.00
2023-04-11T14:40:11.220Z,10.80
2023-04-11T14:42:59.334Z,10.70
2023-04-11T14:45:47.935Z,10.50
2023-04-11T14:48:35.921Z,10.30
2023-04-11T14:51:27.210Z,10.20
2023-04-11T14:54:14.706Z,10.10
2023-04-11T14:57:03.778Z,10.00
2023-04-11T14:59:51.347Z,10.10
2023-04-11T15:02:39.191Z,10.20
2023-04-11T15:05:26.754Z,10.50
2023-04-11T15:08:14.674Z,10.70
2023-04-11T15:11:02.235Z,10.90
2023-04-11T15:13:52.988Z,11.10
2023-04-11T15:16:40.706Z,11.30
2023-04-11T15:19:28.653Z,11.40
2023-04-11T15:22:16.098Z,11.60
2023-04-11T15:25:04.009Z,11.70
2023-04-11T15:27:51.450Z,11.60
2023-04-11T15:30:57.409Z,11.30
2023-04-11T15:33:44.886Z,11.10
2023-04-11T15:36:32.443Z,10.90
2023-04-11T15:39:19.999Z,11.00
2023-04-11T15:42:08.705Z,10.90
2023-04-11T15:44:56.160Z,10.90
2023-04-11T15:47:43.661Z,10.80
2023-04-11T15:50:32.631Z,10.80
2023-04-11T15:53:20.770Z,10.60
2023-04-11T15:56:08.735Z,10.50
2023-04-11T15:58:56.564Z,10.40
2023-04-11T16:01:44.175Z,10.20
2023-04-11T16:04:34.216Z,10.00
2023-04-11T16:07:25.098Z,9.90
2023-04-11T16:10:12.577Z,9.70
2023-04-11T16:13:01.514Z,9.30
2023-04-11T16:15:48.979Z,8.70
2023-04-11T16:18:36.639Z,8.40
2023-04-11T16:21:25.100Z,8.20
2023-04-11T16:24:12.799Z,8.00
2023-04-11T16:27:01.135Z,7.80
2023-04-11T16:29:48.563Z,7.40
2023-04-11T16:32:36.299Z,7.30
2023-04-11T16:35:23.829Z,7.20
2023-04-11T16:38:11.390Z,7.20
2023-04-11T16:41:01.244Z,7.20
2023-04-11T16:43:48.765Z,7.20
2023-04-11T16:46:36.280Z,7.30
2023-04-11T16:49:23.776Z,7.30
2023-04-11T16:52:11.619Z,7.30
2023-04-11T16:54:59.208Z,7.40
2023-04-11T16:57:46.640Z,7.40
2023-04-11T17:00:34.895Z,7.40
2023-04-11T17:03:22.582Z,7.30
2023-04-11T17:06:16.313Z,7.30
2023-04-11T17:09:06.315Z,7.30
2023-04-11T17:11:53.854Z,7.30
2023-04-11T17:14:41.350Z,7.30
2023-04-11T17:17:28.919Z,7.30
2023-04-11T17:20:16.587Z,7.40
2023-04-11T17:23:04.095Z,7.30
2023-04-11T17:25:53.971Z,7.10
2023-04-11T17:28:42.457Z,6.90
2023-04-11T17:31:30.109Z,6.80
2023-04-11T17:34:17.613Z,6.70
2023-04-11T17:37:06.564Z,6.70
2023-04-11T17:39:54.569Z,6.70
2023-04-11T17:42:42.051Z,6.70
2023-04-11T17:45:30.216Z,6.80
2023-04-11T17:48:18.501Z,6.70
2023-04-11T17:51:06.921Z,6.70
2023-04-11T17:53:54.489Z,6.70
2023-04-11T17:56:42.029Z,6.70
2023-04-11T17:59:29.524Z,6.70
2023-04-11T18:02:17.366Z,6.70
2023-04-11T18:05:16.453Z,6.70
2023-04-11T18:08:08.129Z,6.70
2023-04-11T18:10:55.874Z,6.70
2023-04-11T18:13:44.166Z,6.70
2023-04-11T18:16:31.734Z,6.70
2023-04-11T18:19:19.283Z,6.70
2023-04-11T18:22:06.817Z,6.70
2023-04-11T18:24:54.364Z,6.80
2023-04-11T18:27:42.175Z,6.80
2023-04-11T18:30:29.665Z,6.80
2023-04-11T18:33:18.372Z,6.80
2023-04-11T18:36:07.615Z,6.70
2023-04-11T18:38:55.996Z,6.70
2023-04-11T18:41:44.496Z,6.70
2023-04-11T18:44:33.993Z,6.70
2023-04-11T18:47:22.101Z,6.60
2023-04-11T18:50:09.849Z,6.60
2023-04-11T18:53:00.145Z,6.70
2023-04-11T18:55:51.355Z,6.70
2023-04-11T18:58:45.580Z,6.70
2023-04-11T19:01:34.670Z,6.70
2023-04-11T19:04:23.550Z,6.70
2023-04-11T19:07:12.613Z,6.70
2023-04-11T19:10:00.086Z,6.70
2023-04-11T19:12:47.522Z,6.70
2023-04-11T19:15:35.011Z,6.60
2023-04-11T19:18:22.573Z,6.60
2023-04-11T19:21:10.105Z,6.50
2023-04-11T19:23:59.448Z,6.40
2023-04-11T19:26:47.095Z,6.30
2023-04-11T19:29:34.713Z,6.10
2023-04-11T19:32:22.148Z,6.00
2023-04-11T19:35:11.690Z,5.90
2023-04-11T19:38:02.360Z,5.90
2023-04-11T19:40:50.754Z,5.90
2023-04-11T19:43:38.215Z,5.80
2023-04-11T19:46:25.817Z,5.80
2023-04-11T19:49:13.320Z,5.70
2023-04-11T19:52:00.898Z,5.60
2023-04-11T19:54:48.308Z,5.60
2023-04-11T19:57:39.181Z,5.50
2023-04-11T20:00:31.946Z,5.50
2023-04-11T20:03:23.196Z,5.40
2023-04-11T20:06:12.423Z,5.30
2023-04-11T20:09:00.142Z,5.30
2023-04-11T20:11:50.775Z,5.20
2023-04-11T20:14:38.398Z,5.20
2023-04-11T20:17:26.050Z,5.10
2023-04-11T20:20:14.075Z,5.10
2023-04-11T20:23:05.173Z,5.00
2023-04-11T20:25:52.727Z,5.00
2023-04-11T20:28:40.314Z,4.90
2023-04-11T20:31:28.185Z,4.90
2023-04-11T20:34:16.194Z,4.80
2023-04-11T20:37:04.812Z,4.70
2023-04-11T20:39:52.379Z,4.70
2023-04-11T20:42:47.595Z,4.60
2023-04-11T20:45:36.358Z,4.60
2023-04-11T20:48:26.097Z,4.50
2023-04-11T20:51:14.963Z,4.50
2023-04-11T20:54:02.876Z,4.40
2023-04-11T20:56:52.549Z,4.40
2023-04-11T20:59:39.976Z,4.50
2023-04-11T21:02:28.436Z,4.50
2023-04-11T21:05:18.780Z,4.40
2023-04-11T21:08:06.722Z,4.40
2023-04-11T21:10:54.170Z,4.40
2023-04-11T21:13:41.865Z,4.30
2023-04-11T21:16:29.299Z,4.20
2023-04-11T21:19:16.770Z,4.10
2023-04-11T21:22:05.584Z,4.00
2023-04-11T21:24:53.090Z,4.00
2023-04-11T21:27:41.387Z,3.90
2023-04-11T21:30:30.716Z,3.90
2023-04-11T21:33:18.392Z,3.80
2023-04-11T21:36:06.746Z,3.70
2023-04-11T21:38:54.218Z,3.70
2023-04-11T21:41:41.678Z,3.60
2023-04-11T21:44:29.733Z,3.50
2023-04-11T21:47:18.717Z,3.50
2023-04-11T21:50:07.418Z,3.50
2023-04-11T21:52:54.885Z,3.50
2023-04-11T21:55:47.344Z,3.50
2023-04-11T21:58:35.035Z,3.40
2023-04-11T22:01:23.973Z,3.40
2023-04-11T22:04:11.845Z,3.30
2023-04-11T22:07:00.754Z,3.40
2023-04-11T22:09:48.201Z,3.40
2023-04-11T22:12:36.858Z,3.50
2023-04-11T22:15:24.651Z,3.50
2023-04-11T22:18:13.143Z,3.50
2023-04-11T22:21:03.244Z,3.60
2023-04-11T22:23:56.764Z,3.60
2023-04-11T22:26:49.278Z,3.60
2023-04-11T22:29:36.952Z,3.50
2023-04-11T22:32:24.558Z,3.50
2023-04-11T22:35:13.665Z,3.50
2023-04-11T22:38:01.329Z,3.40
2023-04-11T22:40:48.753Z,3.40
2023-04-11T22:43:36.551Z,3.40
2023-04-11T22:46:24.025Z,3.40
2023-04-11T22:49:11.532Z,3.30
2023-04-11T22:52:02.185Z,3.30
2023-04-11T22:54:49.704Z,3.20
2023-04-11T22:57:41.351Z,3.20
2023-04-11T23:00:29.963Z,3.30
2023-04-11T23:03:18.641Z,3.40
2023-04-11T23:06:07.066Z,3.30
2023-04-11T23:08:55.184Z,3.30
2023-04-11T23:11:43.789Z,3.30
2023-04-11T23:14:32.087Z,3.20
2023-04-11T23:17:19.579Z,3.20
2023-04-11T23:20:11.041Z,3.30
2023-04-11T23:22:59.249Z,3.30
2023-04-11T23:25:46.733Z,3.30
2023-04-11T23:28:34.737Z,3.30
2023-04-11T23:31:22.395Z,3.30
2023-04-11T23:34:10.061Z,3.40
2023-04-11T23:36:58.069Z,3.40
2023-04-11T23:39:45.537Z,3.50
2023-04-11T23:42:33.078Z,3.70
2023-04-11T23:45:22.771Z,4.00
2023-04-11T23:48:10.221Z,4.30
2023-04-11T23:50:58.468Z,4.30
2023-04-11T23:53:46.063Z,4.40
2023-04-11T23:56:33.509Z,4.40
2023-04-11T23:59:21.563Z,4.40
